createdAt,value
2022-09-28T00:01:24.472Z,14.67
2022-09-28T00:03:57.431Z,15.30
2022-09-28T00:06:30.183Z,14.73
2022-09-28T00:08:59.251Z,16.20
2022-09-28T00:11:29.060Z,15.37
2022-09-28T00:14:02.540Z,14.87
2022-09-28T00:16:34.559Z,15.00
2022-09-28T00:19:04.863Z,16.10
2022-09-28T00:21:37.422Z,18.80
2022-09-28T00:24:15.032Z,15.73
2022-09-28T00:26:48.164Z,15.70
2022-09-28T00:29:23.906Z,18.03
2022-09-28T00:31:57.010Z,23.80
2022-09-28T00:34:25.350Z,18.00
2022-09-28T00:36:54.990Z,22.07
2022-09-28T00:39:23.234Z,22.30
2022-09-28T00:41:51.784Z,20.67
2022-09-28T00:44:46.657Z,21.47
2022-09-28T00:47:41.197Z,19.10
2022-09-28T00:50:18.704Z,16.50
2022-09-28T00:52:55.017Z,17.33
2022-09-28T00:55:32.161Z,20.90
2022-09-28T00:58:02.010Z,18.50
2022-09-28T01:00:30.322Z,22.70
2022-09-28T01:03:00.700Z,23.93
2022-09-28T01:05:29.463Z,24.03
2022-09-28T01:08:00.669Z,24.33
2022-09-28T01:10:31.006Z,26.60
2022-09-28T01:12:59.804Z,26.17
2022-09-28T01:15:30.355Z,21.83
2022-09-28T01:18:09.351Z,25.63
2022-09-28T01:21:02.469Z,25.57
2022-09-28T01:24:09.567Z,26.13
2022-09-28T01:27:01.801Z,26.57
2022-09-28T01:29:42.074Z,31.83
2022-09-28T01:32:20.942Z,26.17
2022-09-28T01:34:58.612Z,20.53
2022-09-28T01:37:33.662Z,25.20
2022-09-28T01:40:04.070Z,27.20
2022-09-28T01:42:37.547Z,24.87
2022-09-28T01:45:12.679Z,31.00
2022-09-28T01:47:42.216Z,26.80
2022-09-28T01:50:15.681Z,29.63
2022-09-28T01:52:51.235Z,32.47
2022-09-28T01:55:29.191Z,27.90
2022-09-28T01:58:05.893Z,26.20
2022-09-28T02:00:41.527Z,27.70
2022-09-28T02:03:16.751Z,29.93
2022-09-28T02:05:50.778Z,31.97
2022-09-28T02:08:26.910Z,26.67
2022-09-28T02:11:02.878Z,25.37
2022-09-28T02:13:39.145Z,24.60
2022-09-28T02:16:15.700Z,77.83
2022-09-28T02:18:45.330Z,26.93
2022-09-28T02:21:19.668Z,21.60
2022-09-28T02:23:55.092Z,27.60
2022-09-28T02:26:28.513Z,28.37
2022-09-28T02:28:58.190Z,30.40
2022-09-28T02:31:27.944Z,24.93
2022-09-28T02:33:58.584Z,30.67
2022-09-28T02:36:27.643Z,25.70
2022-09-28T02:38:58.324Z,25.43
2022-09-28T02:41:43.113Z,26.77
2022-09-28T02:44:31.726Z,27.20
2022-09-28T02:47:06.496Z,31.73
2022-09-28T02:49:44.257Z,28.63
2022-09-28T02:52:38.425Z,26.50
2022-09-28T02:55:30.533Z,52.93
2022-09-28T02:58:18.266Z,64.90
2022-09-28T03:00:58.562Z,220.00
2022-09-28T03:03:35.724Z,207.60
2022-09-28T03:06:10.436Z,309.93
2022-09-28T03:08:42.240Z,155.50
2022-09-28T03:11:17.623Z,118.03
2022-09-28T03:13:46.266Z,327.87
2022-09-28T03:16:18.846Z,193.07
2022-09-28T03:18:48.626Z,248.10
2022-09-28T03:21:17.398Z,225.27
2022-09-28T03:23:47.284Z,239.83
2022-09-28T03:26:16.797Z,274.27
2022-09-28T03:28:45.383Z,108.47
2022-09-28T03:31:14.946Z,352.73
2022-09-28T03:33:43.148Z,130.00
2022-09-28T03:36:11.293Z,229.33
2022-09-28T03:38:39.902Z,151.13
2022-09-28T03:41:09.395Z,143.30
2022-09-28T03:43:37.510Z,147.27
2022-09-28T03:46:06.003Z,297.90
2022-09-28T03:48:37.580Z,172.00
2022-09-28T03:51:09.227Z,239.77
2022-09-28T03:53:38.247Z,176.77
2022-09-28T03:56:09.223Z,202.70
2022-09-28T03:58:37.463Z,200.70
2022-09-28T04:01:09.250Z,178.00
2022-09-28T04:03:41.319Z,165.60
2022-09-28T04:06:09.889Z,115.63
2022-09-28T04:08:38.090Z,195.67
2022-09-28T04:11:06.543Z,233.53
2022-09-28T04:13:34.673Z,283.97
2022-09-28T04:16:03.814Z,163.10
2022-09-28T04:18:33.552Z,350.57
2022-09-28T04:21:06.659Z,162.77
2022-09-28T04:23:36.722Z,252.40
2022-09-28T04:26:06.125Z,243.03
2022-09-28T04:28:57.649Z,318.17
2022-09-28T04:31:25.864Z,282.30
2022-09-28T04:33:54.051Z,190.77
2022-09-28T04:36:25.001Z,232.23
2022-09-28T04:38:53.759Z,143.50
2022-09-28T04:41:23.157Z,304.07
2022-09-28T04:43:51.749Z,198.47
2022-09-28T04:46:20.467Z,175.60
2022-09-28T04:48:48.648Z,195.37
2022-09-28T04:51:16.782Z,311.50
2022-09-28T04:53:46.276Z,395.83
2022-09-28T04:56:16.171Z,420.23
2022-09-28T04:58:48.982Z,180.87
2022-09-28T05:01:23.517Z,146.90
2022-09-28T05:03:52.091Z,145.73
2022-09-28T05:06:21.011Z,184.63
2022-09-28T05:08:50.507Z,155.50
2022-09-28T05:11:19.835Z,190.83
2022-09-28T05:13:48.849Z,191.50
2022-09-28T05:16:17.819Z,275.80
2022-09-28T05:18:45.946Z,175.20
2022-09-28T05:21:19.529Z,205.03
2022-09-28T05:23:49.777Z,179.43
2022-09-28T05:26:18.058Z,178.80
2022-09-28T05:28:46.363Z,146.03
2022-09-28T05:31:14.989Z,197.00
2022-09-28T05:33:43.276Z,350.33
2022-09-28T05:36:12.061Z,205.70
2022-09-28T05:38:40.192Z,211.20
2022-09-28T05:41:09.715Z,304.07
2022-09-28T05:43:38.451Z,270.73
2022-09-28T05:46:07.517Z,254.57
2022-09-28T05:48:35.835Z,215.30
2022-09-28T05:51:04.125Z,224.80
2022-09-28T05:53:32.297Z,251.73
2022-09-28T05:56:00.807Z,234.80
2022-09-28T05:58:30.899Z,382.93
2022-09-28T06:00:59.758Z,335.40
2022-09-28T06:03:28.418Z,359.87
2022-09-28T06:05:56.621Z,262.57
2022-09-28T06:08:24.819Z,255.50
2022-09-28T06:10:52.856Z,363.73
2022-09-28T06:13:21.033Z,241.93
2022-09-28T06:15:50.571Z,165.00
2022-09-28T06:18:18.709Z,214.40
2022-09-28T06:20:49.476Z,194.97
2022-09-28T06:23:17.818Z,361.50
2022-09-28T06:25:45.964Z,347.10
2022-09-28T06:28:16.103Z,314.47
2022-09-28T06:30:45.049Z,237.13
2022-09-28T06:33:16.408Z,141.37
2022-09-28T06:35:44.809Z,202.23
2022-09-28T06:38:13.228Z,161.80
2022-09-28T06:40:41.555Z,222.37
2022-09-28T06:43:14.941Z,262.60
2022-09-28T06:45:44.496Z,123.90
2022-09-28T06:48:14.982Z,397.23
2022-09-28T06:50:43.535Z,245.77
2022-09-28T06:53:14.820Z,188.50
2022-09-28T06:55:46.063Z,245.10
2022-09-28T06:58:17.064Z,208.97
2022-09-28T07:00:45.570Z,124.97
2022-09-28T07:03:17.789Z,104.90
2022-09-28T07:05:48.904Z,154.33
2022-09-28T07:08:18.130Z,206.47
2022-09-28T07:10:48.894Z,191.20
2022-09-28T07:13:44.218Z,246.47
2022-09-28T07:16:07.201Z,170.20
2022-09-28T07:18:36.641Z,155.40
2022-09-28T07:21:08.143Z,230.63
2022-09-28T07:23:49.523Z,131.83
2022-09-28T07:26:23.330Z,122.87
2022-09-28T07:28:52.592Z,94.73
2022-09-28T07:31:20.872Z,125.53
2022-09-28T07:33:53.942Z,86.17
2022-09-28T07:36:22.862Z,82.27
2022-09-28T07:38:51.210Z,121.50
2022-09-28T07:41:27.275Z,74.57
2022-09-28T07:43:55.411Z,95.27
2022-09-28T07:46:23.671Z,105.10
2022-09-28T07:48:53.659Z,129.87
2022-09-28T07:51:22.137Z,134.23
2022-09-28T07:53:50.299Z,155.43
2022-09-28T07:56:20.157Z,155.13
2022-09-28T07:58:49.711Z,145.40
2022-09-28T08:01:19.224Z,173.57
2022-09-28T08:03:48.523Z,164.53
2022-09-28T08:06:18.759Z,199.73
2022-09-28T08:08:46.849Z,99.00
2022-09-28T08:11:18.814Z,181.37
2022-09-28T08:13:48.200Z,180.37
2022-09-28T08:16:16.522Z,76.97
2022-09-28T08:18:44.710Z,119.23
2022-09-28T08:21:30.253Z,204.80
2022-09-28T08:23:59.865Z,350.10
2022-09-28T08:26:29.017Z,55.73
2022-09-28T08:28:57.272Z,152.43
2022-09-28T08:31:25.933Z,97.27
2022-09-28T08:33:54.390Z,106.07
2022-09-28T08:36:22.584Z,77.97
2022-09-28T08:38:51.094Z,297.40
2022-09-28T08:41:35.849Z,71.47
2022-09-28T08:44:19.318Z,145.93
2022-09-28T08:46:51.259Z,62.97
2022-09-28T08:49:26.795Z,169.30
2022-09-28T08:52:01.229Z,173.93
2022-09-28T08:54:39.686Z,288.37
2022-09-28T08:57:15.839Z,25.33
2022-09-28T08:59:51.247Z,28.93
2022-09-28T09:02:27.156Z,13.80
2022-09-28T09:04:56.974Z,14.43
2022-09-28T09:07:48.398Z,18.43
2022-09-28T09:10:49.884Z,24.37
2022-09-28T09:13:41.377Z,27.10
2022-09-28T09:16:20.625Z,13.63
2022-09-28T09:18:55.643Z,23.73
2022-09-28T09:21:42.594Z,16.87
2022-09-28T09:24:27.155Z,13.17
2022-09-28T09:27:07.640Z,11.47
2022-09-28T09:30:01.951Z,13.03
2022-09-28T09:33:10.873Z,12.17
2022-09-28T09:36:00.695Z,11.70
2022-09-28T09:38:45.993Z,12.87
2022-09-28T09:41:30.145Z,14.30
2022-09-28T09:44:21.143Z,10.97
2022-09-28T09:46:57.625Z,9.83
2022-09-28T09:49:31.980Z,11.60
2022-09-28T09:52:08.086Z,11.87
2022-09-28T09:54:40.672Z,9.87
2022-09-28T09:57:14.591Z,10.03
2022-09-28T09:59:44.539Z,9.43
2022-09-28T10:02:24.653Z,9.50
2022-09-28T10:04:58.383Z,8.90
2022-09-28T10:07:39.333Z,8.10
2022-09-28T10:10:17.132Z,7.70
2022-09-28T10:12:45.314Z,9.20
2022-09-28T10:15:20.842Z,7.93
2022-09-28T10:17:50.521Z,8.33
2022-09-28T10:20:19.850Z,8.50
2022-09-28T10:22:48.212Z,7.50
2022-09-28T10:25:16.887Z,7.40
2022-09-28T10:27:49.271Z,8.40
2022-09-28T10:30:20.535Z,7.47
2022-09-28T10:32:52.440Z,7.10
2022-09-28T10:35:26.971Z,7.40
2022-09-28T10:37:59.971Z,9.60
2022-09-28T10:40:43.520Z,6.63
2022-09-28T10:43:23.470Z,6.93
2022-09-28T10:46:02.121Z,8.43
2022-09-28T10:48:46.820Z,6.83
2022-09-28T10:51:15.150Z,5.93
2022-09-28T10:53:43.258Z,6.10
2022-09-28T10:56:21.681Z,5.83
2022-09-28T10:58:49.971Z,4.67
2022-09-28T11:01:21.658Z,5.27
2022-09-28T11:03:56.622Z,5.27
2022-09-28T11:06:27.640Z,6.17
2022-09-28T11:09:00.812Z,5.07
2022-09-28T11:11:31.502Z,5.70
2022-09-28T11:14:03.447Z,5.07
2022-09-28T11:16:35.923Z,5.53
2022-09-28T11:19:30.415Z,4.63
2022-09-28T11:21:58.635Z,4.27
2022-09-28T11:24:27.099Z,4.63
2022-09-28T11:26:57.668Z,4.20
2022-09-28T11:29:35.035Z,3.27
2022-09-28T11:32:05.253Z,6.10
2022-09-28T11:34:58.207Z,3.00
2022-09-28T11:38:04.796Z,2.80
2022-09-28T11:40:50.174Z,2.43
2022-09-28T11:43:40.714Z,2.37
2022-09-28T11:46:17.209Z,2.63
2022-09-28T11:48:50.983Z,2.83
2022-09-28T11:51:27.149Z,2.23
2022-09-28T11:53:58.223Z,4.63
2022-09-28T11:56:36.110Z,2.63
2022-09-28T11:59:11.908Z,2.40
2022-09-28T12:01:45.381Z,2.63
2022-09-28T12:04:19.042Z,3.20
2022-09-28T12:06:54.899Z,2.00
2022-09-28T12:09:29.048Z,2.70
2022-09-28T12:12:03.838Z,2.70
2022-09-28T12:14:40.530Z,2.87
2022-09-28T12:17:20.537Z,1.50
2022-09-28T12:19:53.469Z,2.83
2022-09-28T12:22:28.038Z,2.57
2022-09-28T12:24:59.257Z,2.27
2022-09-28T12:27:38.747Z,2.13
2022-09-28T12:30:15.685Z,2.33
2022-09-28T12:32:49.697Z,1.30
2022-09-28T12:35:29.531Z,2.08
2022-09-28T12:38:21.327Z,2.20
2022-09-28T12:40:57.967Z,1.20
2022-09-28T12:43:49.574Z,1.35
2022-09-28T12:46:55.267Z,1.55
2022-09-28T12:51:02.363Z,1.30
2022-09-28T12:52:57.019Z,1.38
2022-09-28T12:55:45.162Z,1.60
2022-09-28T12:58:40.081Z,1.02
2022-09-28T13:01:29.173Z,1.10
2022-09-28T13:04:20.221Z,1.52
2022-09-28T13:07:05.020Z,1.07
2022-09-28T13:09:45.913Z,1.73
2022-09-28T13:12:32.473Z,1.30
2022-09-28T13:15:45.047Z,1.50
2022-09-28T13:18:23.835Z,1.10
2022-09-28T13:21:09.380Z,1.40
2022-09-28T13:23:41.595Z,1.60
2022-09-28T13:26:18.392Z,2.30
2022-09-28T13:28:50.291Z,1.50
2022-09-28T13:31:25.818Z,1.33
2022-09-28T13:33:58.337Z,1.27
2022-09-28T13:36:47.137Z,1.73
2022-09-28T13:39:37.674Z,1.57
2022-09-28T13:42:09.215Z,10.73
2022-09-28T13:45:09.476Z,3.37
2022-09-28T13:48:05.234Z,4.13
2022-09-28T13:51:06.130Z,1.60
2022-09-28T13:54:04.482Z,1.80
2022-09-28T13:56:44.376Z,2.87
2022-09-28T13:59:20.629Z,2.40
2022-09-28T14:01:57.064Z,6.47
2022-09-28T14:04:47.682Z,4.87
2022-09-28T14:07:21.852Z,7.40
2022-09-28T14:10:15.344Z,2.93
2022-09-28T14:12:49.547Z,4.97
2022-09-28T14:15:43.905Z,2.90
2022-09-28T14:18:23.371Z,1.47
2022-09-28T14:21:04.507Z,1.30
2022-09-28T14:24:10.701Z,3.23
2022-09-28T14:27:24.800Z,2.07
2022-09-28T14:30:08.357Z,5.10
2022-09-28T14:32:38.935Z,13.70
2022-09-28T14:35:19.056Z,6.53
2022-09-28T14:38:08.243Z,5.72
2022-09-28T14:41:13.750Z,6.30
2022-09-28T14:44:09.213Z,8.65
2022-09-28T14:46:44.756Z,5.78
2022-09-28T14:50:01.115Z,3.15
2022-09-28T14:52:48.216Z,3.10
2022-09-28T14:55:20.393Z,2.55
2022-09-28T14:57:55.109Z,2.75
2022-09-28T15:00:27.276Z,3.45
2022-09-28T15:03:01.148Z,4.07
2022-09-28T15:05:33.913Z,4.72
2022-09-28T15:08:03.856Z,2.95
2022-09-28T15:10:34.522Z,1.52
2022-09-28T15:13:05.932Z,0.80
2022-09-28T15:15:37.496Z,1.80
2022-09-28T15:19:03.207Z,2.00
2022-09-28T15:21:38.870Z,1.33
2022-09-28T15:24:28.288Z,1.90
2022-09-28T15:26:56.712Z,2.20
2022-09-28T15:29:27.308Z,3.13
2022-09-28T15:31:55.672Z,4.60
2022-09-28T15:34:54.600Z,1.40
2022-09-28T15:37:26.128Z,1.57
2022-09-28T15:40:10.142Z,1.73
2022-09-28T15:42:38.505Z,8.20
2022-09-28T15:45:28.640Z,4.53
2022-09-28T15:48:19.446Z,4.03
2022-09-28T15:51:10.717Z,3.70
2022-09-28T15:53:44.563Z,3.10
2022-09-28T15:56:14.103Z,4.20
2022-09-28T15:58:42.738Z,3.50
2022-09-28T16:01:36.411Z,2.97
2022-09-28T16:04:37.224Z,1.80
2022-09-28T16:07:24.807Z,2.17
2022-09-28T16:10:04.778Z,1.73
2022-09-28T16:12:48.033Z,3.47
2022-09-28T16:15:23.892Z,1.70
2022-09-28T16:17:56.272Z,2.87
2022-09-28T16:20:32.035Z,3.10
2022-09-28T16:23:06.030Z,2.03
2022-09-28T16:25:39.427Z,2.77
2022-09-28T16:28:51.819Z,2.77
2022-09-28T16:31:33.616Z,4.67
2022-09-28T16:34:17.389Z,2.93
2022-09-28T16:36:48.077Z,3.33
2022-09-28T16:39:17.704Z,2.60
2022-09-28T16:41:50.633Z,3.60
2022-09-28T16:44:25.754Z,2.40
2022-09-28T16:46:57.039Z,2.30
2022-09-28T16:49:26.322Z,2.23
2022-09-28T16:51:54.656Z,2.53
2022-09-28T16:54:42.983Z,2.63
2022-09-28T16:57:13.816Z,1.57
2022-09-28T16:59:43.494Z,2.43
2022-09-28T17:05:10.217Z,1.70
2022-09-28T17:07:38.974Z,1.50
2022-09-28T17:10:18.624Z,2.67
2022-09-28T17:12:47.531Z,2.77
2022-09-28T17:15:19.456Z,2.37
2022-09-28T17:17:47.813Z,3.00
2022-09-28T17:20:22.503Z,2.87
2022-09-28T17:22:50.766Z,2.03
2022-09-28T17:25:20.240Z,2.10
2022-09-28T17:27:50.064Z,1.90
2022-09-28T17:30:23.613Z,2.77
2022-09-28T17:32:53.853Z,3.90
2022-09-28T17:35:25.133Z,2.60
2022-09-28T17:37:54.278Z,2.57
2022-09-28T17:40:25.559Z,1.90
2022-09-28T17:42:55.114Z,2.27
2022-09-28T17:45:26.920Z,2.83
2022-09-28T17:47:55.374Z,2.30
2022-09-28T17:50:27.335Z,4.67
2022-09-28T17:52:57.817Z,2.37
2022-09-28T17:55:31.478Z,2.17
2022-09-28T17:58:00.992Z,1.70
2022-09-28T18:00:30.519Z,1.93
2022-09-28T18:02:59.569Z,2.83
2022-09-28T18:05:29.239Z,2.93
2022-09-28T18:07:58.751Z,2.30
2022-09-28T18:10:27.504Z,1.80
2022-09-28T18:12:55.763Z,2.30
2022-09-28T18:15:24.167Z,2.50
2022-09-28T18:17:53.700Z,4.33
2022-09-28T18:20:22.160Z,2.50
2022-09-28T18:22:50.314Z,3.00
2022-09-28T18:25:18.753Z,2.60
2022-09-28T18:27:46.929Z,2.27
2022-09-28T18:30:15.198Z,3.53
2022-09-28T18:32:43.372Z,4.83
2022-09-28T18:35:13.050Z,5.60
2022-09-28T18:37:42.059Z,5.03
2022-09-28T18:40:12.726Z,5.60
2022-09-28T18:42:41.722Z,5.43
2022-09-28T18:45:12.268Z,5.87
2022-09-28T18:47:40.984Z,4.90
2022-09-28T18:50:13.005Z,5.33
2022-09-28T18:52:41.850Z,4.93
2022-09-28T18:55:11.625Z,5.57
2022-09-28T18:57:41.365Z,5.10
2022-09-28T19:00:12.481Z,5.70
2022-09-28T19:02:41.217Z,7.63
2022-09-28T19:05:09.889Z,8.90
2022-09-28T19:07:39.377Z,13.67
2022-09-28T19:10:09.141Z,17.23
2022-09-28T19:12:37.385Z,10.47
2022-09-28T19:15:06.450Z,13.20
2022-09-28T19:17:34.811Z,12.63
2022-09-28T19:20:03.648Z,10.17
2022-09-28T19:22:31.773Z,10.47
2022-09-28T19:25:01.324Z,12.30
2022-09-28T19:27:29.839Z,12.30
2022-09-28T19:29:57.953Z,13.00
2022-09-28T19:32:26.065Z,16.00
2022-09-28T19:34:54.207Z,13.83
2022-09-28T19:37:22.552Z,11.47
2022-09-28T19:39:50.652Z,12.27
2022-09-28T19:42:20.106Z,11.73
2022-09-28T19:44:48.241Z,11.20
2022-09-28T19:47:17.208Z,11.60
2022-09-28T19:49:46.716Z,11.03
2022-09-28T19:52:16.970Z,12.37
2022-09-28T19:54:52.029Z,11.27
2022-09-28T19:57:21.561Z,11.17
2022-09-28T19:59:52.718Z,10.37
2022-09-28T20:02:21.767Z,12.53
2022-09-28T20:04:50.543Z,11.10
2022-09-28T20:07:18.622Z,12.13
2022-09-28T20:09:46.746Z,10.50
2022-09-28T20:12:14.885Z,9.67
2022-09-28T20:14:44.501Z,10.37
2022-09-28T20:17:12.823Z,8.60
2022-09-28T20:19:40.997Z,9.00
2022-09-28T20:22:09.209Z,10.77
2022-09-28T20:24:37.290Z,9.60
2022-09-28T20:27:05.497Z,8.93
2022-09-28T20:29:34.701Z,11.97
2022-09-28T20:32:04.859Z,10.30
2022-09-28T20:34:33.536Z,9.13
2022-09-28T20:37:02.291Z,9.10
2022-09-28T20:39:30.474Z,9.50
2022-09-28T20:41:58.593Z,10.83
2022-09-28T20:44:26.711Z,12.83
2022-09-28T20:46:56.234Z,13.50
2022-09-28T20:49:27.127Z,11.40
2022-09-28T20:51:55.389Z,10.47
2022-09-28T20:54:23.531Z,11.87
2022-09-28T20:56:51.622Z,12.27
2022-09-28T20:59:22.581Z,13.30
2022-09-28T21:01:51.055Z,12.47
2022-09-28T21:04:19.681Z,11.83
2022-09-28T21:06:49.251Z,13.43
2022-09-28T21:09:17.469Z,15.77
2022-09-28T21:11:48.066Z,15.07
2022-09-28T21:14:17.177Z,17.00
2022-09-28T21:16:45.323Z,15.37
2022-09-28T21:19:13.569Z,14.23
2022-09-28T21:21:42.170Z,16.17
2022-09-28T21:24:13.512Z,16.07
2022-09-28T21:26:41.640Z,17.90
2022-09-28T21:29:14.829Z,15.20
2022-09-28T21:31:46.331Z,13.93
2022-09-28T21:34:19.198Z,15.43
2022-09-28T21:36:48.152Z,12.17
2022-09-28T21:39:18.314Z,13.30
2022-09-28T21:41:46.540Z,12.23
2022-09-28T21:44:14.706Z,11.90
2022-09-28T21:47:01.698Z,15.03
2022-09-28T21:49:29.991Z,11.87
2022-09-28T21:51:58.146Z,14.63
2022-09-28T21:54:28.861Z,14.27
2022-09-28T21:56:56.964Z,14.13
2022-09-28T21:59:25.959Z,13.53
2022-09-28T22:01:55.384Z,13.63
2022-09-28T22:04:23.562Z,13.00
2022-09-28T22:06:51.754Z,13.37
2022-09-28T22:09:19.879Z,11.43
2022-09-28T22:11:49.634Z,11.50
2022-09-28T22:14:17.811Z,11.73
2022-09-28T22:16:45.942Z,12.00
2022-09-28T22:19:14.159Z,11.00
2022-09-28T22:21:42.752Z,11.73
2022-09-28T22:24:10.975Z,10.73
2022-09-28T22:26:40.414Z,12.07
2022-09-28T22:29:11.426Z,11.00
2022-09-28T22:31:42.089Z,11.97
2022-09-28T22:34:11.180Z,9.43
2022-09-28T22:36:39.435Z,9.80
2022-09-28T22:39:07.700Z,10.87
2022-09-28T22:41:35.825Z,10.17
2022-09-28T22:44:03.921Z,11.43
2022-09-28T22:46:33.410Z,9.83
2022-09-28T22:49:02.157Z,10.47
2022-09-28T22:51:32.113Z,12.73
2022-09-28T22:54:00.289Z,10.33
2022-09-28T22:56:29.355Z,11.30
2022-09-28T22:58:57.615Z,10.53
2022-09-28T23:01:28.609Z,10.07
2022-09-28T23:04:00.825Z,11.03
2022-09-28T23:09:45.892Z,10.03
2022-09-28T23:12:13.999Z,9.57
2022-09-28T23:14:42.161Z,9.60
2022-09-28T23:17:10.241Z,9.50
2022-09-28T23:19:39.860Z,10.03
2022-09-28T23:22:08.422Z,9.87
2022-09-28T23:24:36.795Z,10.30
2022-09-28T23:27:07.106Z,9.70
2022-09-28T23:29:35.388Z,10.43
2022-09-28T23:32:03.827Z,9.60
2022-09-28T23:34:31.909Z,10.07
2022-09-28T23:37:01.444Z,9.97
2022-09-28T23:39:29.647Z,9.50
2022-09-28T23:41:58.923Z,9.83
2022-09-28T23:44:27.939Z,9.57
2022-09-28T23:46:57.442Z,9.47
2022-09-28T23:49:25.589Z,9.47
2022-09-28T23:51:56.114Z,9.67
2022-09-28T23:54:25.645Z,9.50
2022-09-28T23:56:53.728Z,9.70
2022-09-28T23:59:21.853Z,8.50
